Terminal Aerodrome Forecast
Issued by NWS Nashville, TN

Home | Current Version | Previous Version | Text Only | Print | Product List | Glossary On
Versions: 1 2 3 4 5 6 7 8 9 10 11 12 13 14 15 16 17 18 19 20 21 22
000
FTUS44 KOHX 241200 AAA
TAFBNA
TAF AMD
KBNA 241259Z 2413/2512 21016G26KT P6SM FEW040 SCT045 WS020/21040KT
      TEMPO 2413/2415 5SM -SHRA OVC035
     FM241600 24015G25KT P6SM OVC050
     FM242300 24009KT P6SM SCT100
     FM251000 27003KT P6SM SKC=

USA.gov is the U.S. government's official web portal to all federal, state and local government web resources and services.